Time;durP1;ratioP1;P1;durP2;ratioP2;P2;SDS_P1;SDS_P2;PMS_P1;PMS_P2;Temp;Humidity;BMP_temperature;BMP_pressure;BME280_temperature;BME280_humidity;BME280_pressure;Samples;Min_cycle;Max_cycle;Signal;HPM_P1;HPM_P2
2023/05/17 00:01:27;;;;;;;22.50;20.80;;;;;;;;;;5040215;28;20448;-79
2023/05/17 00:03:55;;;;;;;21.83;20.30;;;;;;;;;;5036887;28;20440;-80
2023/05/17 00:06:22;;;;;;;21.83;20.43;;;;;;;;;;5037474;28;20456;-80
2023/05/17 00:08:49;;;;;;;22.70;21.13;;;;;;;;;;5038437;28;20422;-80
2023/05/17 00:11:16;;;;;;;21.10;19.80;;;;;;;;;;5038520;28;20426;-80
2023/05/17 00:13:43;;;;;;;22.17;20.70;;;;;;;;;;5039092;28;20462;-79
2023/05/17 00:16:12;;;;;;;22.23;20.53;;;;;;;;;;5038181;28;20570;-80
2023/05/17 00:18:39;;;;;;;21.73;20.20;;;;;;;;;;5039695;28;20476;-81
2023/05/17 00:21:06;;;;;;;21.50;20.30;;;;;;;;;;5040412;28;20475;-80
2023/05/17 00:23:33;;;;;;;21.90;20.40;;;;;;;;;;5040278;28;20539;-80
2023/05/17 00:26:00;;;;;;;22.63;21.07;;;;;;;;;;5039205;28;20467;-81
2023/05/17 00:28:27;;;;;;;21.70;20.40;;;;;;;;;;5040470;28;20554;-80
2023/05/17 00:30:54;;;;;;;21.57;20.27;;;;;;;;;;5040781;28;20434;-80
2023/05/17 00:33:22;;;;;;;20.97;19.67;;;;;;;;;;5040540;28;20430;-80
2023/05/17 00:35:49;;;;;;;22.00;20.40;;;;;;;;;;5039176;28;20796;-80
2023/05/17 00:38:16;;;;;;;21.67;20.17;;;;;;;;;;5039914;28;20430;-80
2023/05/17 00:40:43;;;;;;;22.20;20.60;;;;;;;;;;5039829;28;20471;-81
2023/05/17 00:43:10;;;;;;;21.20;19.90;;;;;;;;;;5040583;28;20816;-80
2023/05/17 00:45:37;;;;;;;21.97;20.37;;;;;;;;;;5039164;28;20437;-80
2023/05/17 00:48:05;;;;;;;21.07;19.77;;;;;;;;;;5039883;28;20440;-81
2023/05/17 00:50:33;;;;;;;21.70;20.33;;;;;;;;;;5039555;28;20533;-80
2023/05/17 00:53:00;;;;;;;21.97;20.67;;;;;;;;;;5039572;28;20411;-80
2023/05/17 00:55:28;;;;;;;21.80;20.60;;;;;;;;;;5039623;28;20614;-81
2023/05/17 00:57:55;;;;;;;22.07;20.57;;;;;;;;;;5039463;28;20442;-81
2023/05/17 01:00:22;;;;;;;21.13;19.83;;;;;;;;;;5039530;28;20469;-81
2023/05/17 01:02:49;;;;;;;22.00;20.70;;;;;;;;;;5039980;28;20438;-81
2023/05/17 01:05:16;;;;;;;21.90;20.60;;;;;;;;;;5040557;28;20418;-81
2023/05/17 01:07:45;;;;;;;23.30;21.63;;;;;;;;;;5039469;28;20462;-80
2023/05/17 01:10:12;;;;;;;21.73;20.37;;;;;;;;;;5039795;28;20517;-81
2023/05/17 01:12:46;;;;;;;21.70;20.40;;;;;;;;;;5038862;28;20448;-80
2023/05/17 01:15:15;;;;;;;21.77;20.57;;;;;;;;;;5040162;28;20503;-81
2023/05/17 01:17:47;;;;;;;23.47;21.73;;;;;;;;;;5038531;28;20547;-80
2023/05/17 01:20:17;;;;;;;22.43;20.70;;;;;;;;;;5042247;28;20525;-81
2023/05/17 01:22:59;;;;;;;21.30;20.00;;;;;;;;;;5042652;28;20496;-82
2023/05/17 01:25:29;;;;;;;21.10;19.80;;;;;;;;;;5042396;28;20399;-81
2023/05/17 01:27:59;;;;;;;21.03;19.73;;;;;;;;;;5041414;28;20447;-81
2023/05/17 01:30:26;;;;;;;21.97;20.57;;;;;;;;;;5042609;28;20473;-81
2023/05/17 01:32:56;;;;;;;22.50;20.93;;;;;;;;;;5041564;28;20471;-80
2023/05/17 01:35:23;;;;;;;22.33;20.90;;;;;;;;;;5039209;28;20527;-80
2023/05/17 01:37:50;;;;;;;21.33;19.93;;;;;;;;;;5038724;28;20414;-81
2023/05/17 01:40:18;;;;;;;21.57;20.17;;;;;;;;;;5039560;28;20446;-80
2023/05/17 01:42:45;;;;;;;21.80;20.40;;;;;;;;;;5038005;28;20446;-79
2023/05/17 01:45:18;;;;;;;22.53;21.07;;;;;;;;;;5037790;28;20857;-81
2023/05/17 01:47:49;;;;;;;22.57;20.53;;;;;;;;;;5037480;28;20386;-80
2023/05/17 01:50:18;;;;;;;21.87;20.37;;;;;;;;;;5038074;28;20954;-81
2023/05/17 01:52:49;;;;;;;21.93;20.20;;;;;;;;;;5036668;28;20450;-80
2023/05/17 01:55:20;;;;;;;22.03;20.73;;;;;;;;;;5037223;28;20818;-80
2023/05/17 01:57:49;;;;;;;22.43;20.70;;;;;;;;;;5037263;28;20476;-81
2023/05/17 02:00:18;;;;;;;21.97;20.77;;;;;;;;;;5037811;28;20471;-80
2023/05/17 02:02:45;;;;;;;22.15;20.65;;;;;;;;;;5037275;28;20517;-80
2023/05/17 02:05:12;;;;;;;23.47;21.13;;;;;;;;;;5037480;28;20215;-80
2023/05/17 02:07:39;;;;;;;22.47;21.07;;;;;;;;;;5036477;28;21036;-80
2023/05/17 02:10:07;;;;;;;22.93;21.47;;;;;;;;;;5037170;28;20498;-80
2023/05/17 02:12:34;;;;;;;22.07;20.67;;;;;;;;;;5036547;28;20426;-80
2023/05/17 02:15:01;;;;;;;22.73;21.03;;;;;;;;;;5036741;28;20438;-81
2023/05/17 02:17:30;;;;;;;21.93;20.23;;;;;;;;;;5036565;28;20449;-79
2023/05/17 02:19:57;;;;;;;22.57;21.10;;;;;;;;;;5036758;28;20964;-80
2023/05/17 02:22:24;;;;;;;22.30;20.80;;;;;;;;;;5037087;28;20476;-80
2023/05/17 02:24:51;;;;;;;22.67;21.13;;;;;;;;;;5036292;28;20439;-80
2023/05/17 02:27:18;;;;;;;22.10;20.57;;;;;;;;;;5037308;28;20927;-81
2023/05/17 02:29:45;;;;;;;22.97;21.23;;;;;;;;;;5037191;28;20857;-80
2023/05/17 02:32:12;;;;;;;21.27;20.00;;;;;;;;;;5037040;28;20426;-80
2023/05/17 02:34:40;;;;;;;22.47;21.17;;;;;;;;;;5036671;28;20515;-80
2023/05/17 02:37:07;;;;;;;20.90;19.70;;;;;;;;;;5036494;28;20809;-80
2023/05/17 02:39:34;;;;;;;22.70;21.00;;;;;;;;;;5037028;28;20511;-80
2023/05/17 02:42:01;;;;;;;22.10;20.77;;;;;;;;;;5037056;28;20444;-80
2023/05/17 02:44:28;;;;;;;22.00;20.70;;;;;;;;;;5035810;28;20438;-81
2023/05/17 02:46:55;;;;;;;22.47;21.00;;;;;;;;;;5036738;28;20201;-81
2023/05/17 02:49:22;;;;;;;22.13;20.70;;;;;;;;;;5036445;28;20500;-80
2023/05/17 02:51:50;;;;;;;21.63;20.00;;;;;;;;;;5036541;28;20484;-80
2023/05/17 02:54:17;;;;;;;23.50;21.40;;;;;;;;;;5036004;28;20446;-80
2023/05/17 02:56:44;;;;;;;22.02;20.17;;;;;;;;;;5036226;28;20440;-80
2023/05/17 02:59:12;;;;;;;22.77;21.30;;;;;;;;;;5036350;28;20752;-81
2023/05/17 03:01:39;;;;;;;22.70;21.13;;;;;;;;;;5036472;28;20800;-81
2023/05/17 03:04:06;;;;;;;21.00;19.70;;;;;;;;;;5036236;28;20492;-81
2023/05/17 03:06:33;;;;;;;23.40;21.70;;;;;;;;;;5036084;28;20403;-80
2023/05/17 03:09:02;;;;;;;24.02;21.90;;;;;;;;;;5036709;28;20457;-80
2023/05/17 03:11:29;;;;;;;22.43;21.03;;;;;;;;;;5036698;28;20287;-81
2023/05/17 03:13:56;;;;;;;23.37;21.40;;;;;;;;;;5036792;28;20496;-80
2023/05/17 03:16:23;;;;;;;21.95;20.60;;;;;;;;;;5035449;28;20469;-81
2023/05/17 03:18:50;;;;;;;22.47;20.87;;;;;;;;;;5036738;28;20208;-81
2023/05/17 03:21:17;;;;;;;22.10;20.70;;;;;;;;;;5037030;28;20753;-81
2023/05/17 03:23:44;;;;;;;21.73;20.43;;;;;;;;;;5036659;28;20828;-80
2023/05/17 03:26:12;;;;;;;22.37;20.90;;;;;;;;;;5035770;28;20450;-81
2023/05/17 03:28:39;;;;;;;22.03;20.50;;;;;;;;;;5036371;28;20437;-80
2023/05/17 03:31:06;;;;;;;22.53;21.13;;;;;;;;;;5035872;28;20524;-80
2023/05/17 03:33:33;;;;;;;22.30;20.90;;;;;;;;;;5036191;28;20429;-81
2023/05/17 03:36:00;;;;;;;23.10;21.27;;;;;;;;;;5045935;28;20247;-78
2023/05/17 03:38:27;;;;;;;22.97;21.20;;;;;;;;;;5057126;28;20185;-78
2023/05/17 03:40:55;;;;;;;23.35;21.38;;;;;;;;;;5055546;28;20479;-78
2023/05/17 03:43:23;;;;;;;22.60;21.27;;;;;;;;;;5040456;28;20200;-79
2023/05/17 03:45:50;;;;;;;22.52;20.83;;;;;;;;;;5038745;28;20658;-79
2023/05/17 03:48:17;;;;;;;21.38;20.08;;;;;;;;;;5040537;28;20189;-78
2023/05/17 03:50:44;;;;;;;22.83;21.13;;;;;;;;;;5039877;28;20243;-78
2023/05/17 03:53:11;;;;;;;22.50;20.98;;;;;;;;;;5039976;28;20430;-78
2023/05/17 03:55:38;;;;;;;23.00;21.20;;;;;;;;;;5038737;28;20283;-78
2023/05/17 03:58:05;;;;;;;22.70;20.87;;;;;;;;;;5039613;28;20541;-79
2023/05/17 04:00:34;;;;;;;23.13;21.73;;;;;;;;;;5039026;28;20471;-79
2023/05/17 04:03:01;;;;;;;22.90;21.48;;;;;;;;;;5039019;28;20455;-78
2023/05/17 04:05:28;;;;;;;22.13;20.75;;;;;;;;;;5039141;28;20207;-78
2023/05/17 04:07:56;;;;;;;21.58;19.90;;;;;;;;;;5038757;28;20209;-78
2023/05/17 04:10:24;;;;;;;22.33;20.92;;;;;;;;;;5039047;28;20336;-78
2023/05/17 04:12:51;;;;;;;22.00;20.50;;;;;;;;;;5039283;28;20295;-79
2023/05/17 04:15:17;;;;;;;22.90;20.98;;;;;;;;;;5044314;28;20491;-79
2023/05/17 04:17:46;;;;;;;22.10;20.50;;;;;;;;;;5045828;28;20254;-79
2023/05/17 04:20:13;;;;;;;22.45;20.90;;;;;;;;;;5046506;28;20467;-79
2023/05/17 04:22:40;;;;;;;23.57;21.63;;;;;;;;;;5045467;28;20232;-79
2023/05/17 04:25:08;;;;;;;22.93;21.27;;;;;;;;;;5046171;28;20451;-79
2023/05/17 04:27:35;;;;;;;22.07;20.73;;;;;;;;;;5044253;28;20871;-79
2023/05/17 04:30:03;;;;;;;23.33;21.63;;;;;;;;;;5044982;28;20438;-79
2023/05/17 04:32:30;;;;;;;23.53;21.77;;;;;;;;;;5044592;28;20555;-78
2023/05/17 04:34:58;;;;;;;22.23;20.93;;;;;;;;;;5044068;28;20461;-78
2023/05/17 04:37:25;;;;;;;23.77;22.07;;;;;;;;;;5043261;28;20467;-79
2023/05/17 04:39:52;;;;;;;23.27;21.63;;;;;;;;;;5042974;28;20477;-78
2023/05/17 04:42:20;;;;;;;23.97;22.27;;;;;;;;;;5043434;28;20572;-79
2023/05/17 04:44:47;;;;;;;22.95;21.25;;;;;;;;;;5043620;28;20456;-78
2023/05/17 04:47:14;;;;;;;22.97;21.40;;;;;;;;;;5041645;28;20205;-79
2023/05/17 04:49:42;;;;;;;24.13;22.08;;;;;;;;;;5042429;28;20486;-79
2023/05/17 04:52:10;;;;;;;23.85;22.13;;;;;;;;;;5042947;28;20204;-78
2023/05/17 04:54:37;;;;;;;24.17;22.13;;;;;;;;;;5042664;28;20756;-79
2023/05/17 04:57:05;;;;;;;23.57;21.97;;;;;;;;;;5043491;28;20514;-79
2023/05/17 04:59:32;;;;;;;25.10;23.00;;;;;;;;;;5042687;28;20485;-78
2023/05/17 05:01:59;;;;;;;23.33;21.60;;;;;;;;;;5041970;28;20456;-79
2023/05/17 05:04:26;;;;;;;23.87;22.07;;;;;;;;;;5043343;28;20212;-79
2023/05/17 05:06:53;;;;;;;23.20;20.97;;;;;;;;;;5042048;28;20440;-78
2023/05/17 05:09:21;;;;;;;23.17;21.57;;;;;;;;;;5041617;28;20890;-78
2023/05/17 05:11:48;;;;;;;23.47;21.80;;;;;;;;;;5041956;28;20440;-78
2023/05/17 05:14:15;;;;;;;23.77;21.90;;;;;;;;;;5041630;28;20443;-79
2023/05/17 05:16:42;;;;;;;23.47;21.60;;;;;;;;;;5041601;28;20542;-79
2023/05/17 05:19:09;;;;;;;24.17;22.27;;;;;;;;;;5041932;28;20966;-78
2023/05/17 05:21:36;;;;;;;25.63;22.95;;;;;;;;;;5042377;28;20907;-78
2023/05/17 05:24:03;;;;;;;24.13;22.23;;;;;;;;;;5043061;28;20263;-78
2023/05/17 05:26:32;;;;;;;24.70;22.47;;;;;;;;;;5041013;28;20414;-79
2023/05/17 05:28:59;;;;;;;23.67;21.53;;;;;;;;;;5042700;28;20486;-79
2023/05/17 05:31:27;;;;;;;23.70;21.90;;;;;;;;;;5042846;28;20426;-78
2023/05/17 05:33:54;;;;;;;24.20;22.33;;;;;;;;;;5042853;28;20418;-78
2023/05/17 05:36:21;;;;;;;22.00;20.30;;;;;;;;;;5042077;28;20464;-78
2023/05/17 05:38:48;;;;;;;24.80;22.83;;;;;;;;;;5041605;28;20468;-78
2023/05/17 05:41:15;;;;;;;23.80;21.37;;;;;;;;;;5041957;28;20514;-80
2023/05/17 05:43:44;;;;;;;23.40;21.30;;;;;;;;;;5042209;28;20564;-78
2023/05/17 05:46:11;;;;;;;23.63;21.63;;;;;;;;;;5041232;28;20836;-78
2023/05/17 05:48:40;;;;;;;24.20;21.83;;;;;;;;;;5041579;28;20426;-78
2023/05/17 05:51:07;;;;;;;22.90;21.00;;;;;;;;;;5042370;28;20554;-78
2023/05/17 05:53:34;;;;;;;23.03;21.20;;;;;;;;;;5041777;28;20438;-78
2023/05/17 05:56:01;;;;;;;23.57;21.87;;;;;;;;;;5041529;28;20483;-79
2023/05/17 05:58:28;;;;;;;22.27;20.50;;;;;;;;;;5041926;28;20462;-78
2023/05/17 06:00:57;;;;;;;23.40;21.10;;;;;;;;;;5041251;28;20462;-78
2023/05/17 06:03:24;;;;;;;24.57;22.00;;;;;;;;;;5039542;28;20430;-80
2023/05/17 06:05:51;;;;;;;22.63;20.80;;;;;;;;;;5041545;28;20428;-79
2023/05/17 06:08:18;;;;;;;22.50;20.70;;;;;;;;;;5041031;28;20440;-80
2023/05/17 06:10:45;;;;;;;22.90;21.20;;;;;;;;;;5045077;28;20483;-79
2023/05/17 06:13:12;;;;;;;22.70;20.50;;;;;;;;;;5039092;28;20935;-80
2023/05/17 06:15:40;;;;;;;23.03;21.00;;;;;;;;;;5025415;28;20479;-78
2023/05/17 06:18:09;;;;;;;24.10;21.60;;;;;;;;;;5019942;28;21320;-79
2023/05/17 06:20:36;;;;;;;23.73;21.43;;;;;;;;;;5018621;28;20480;-78
2023/05/17 06:23:03;;;;;;;23.40;21.13;;;;;;;;;;5031680;28;20468;-79
2023/05/17 06:25:30;;;;;;;25.40;20.97;;;;;;;;;;5022740;28;20923;-79
2023/05/17 06:27:57;;;;;;;21.53;19.83;;;;;;;;;;5022282;28;20608;-79
2023/05/17 06:30:26;;;;;;;21.20;19.50;;;;;;;;;;5022682;28;20554;-79
2023/05/17 06:32:53;;;;;;;23.30;21.00;;;;;;;;;;5021719;28;20439;-79
2023/05/17 06:35:21;;;;;;;23.73;21.70;;;;;;;;;;5022261;28;20471;-79
2023/05/17 06:37:48;;;;;;;22.67;20.10;;;;;;;;;;5021856;28;20452;-79
2023/05/17 06:40:16;;;;;;;20.50;18.80;;;;;;;;;;5023481;28;20443;-79
2023/05/17 06:42:43;;;;;;;22.17;20.10;;;;;;;;;;5021860;28;20504;-79
2023/05/17 06:45:10;;;;;;;21.10;19.30;;;;;;;;;;5022918;28;20411;-78
2023/05/17 06:47:37;;;;;;;20.97;18.87;;;;;;;;;;5021505;28;20457;-79
2023/05/17 06:50:04;;;;;;;20.77;19.40;;;;;;;;;;5021790;28;20827;-87
2023/05/17 06:52:33;;;;;;;21.03;19.43;;;;;;;;;;5027343;28;20443;-84
2023/05/17 06:55:00;;;;;;;20.63;19.13;;;;;;;;;;5017464;28;20447;-89
2023/05/17 06:57:27;;;;;;;21.10;19.20;;;;;;;;;;5016063;28;20466;-88
2023/05/17 06:59:54;;;;;;;21.67;20.03;;;;;;;;;;5041834;28;20506;-80
2023/05/17 07:02:21;;;;;;;23.37;20.77;;;;;;;;;;5032524;28;20411;-80
2023/05/17 07:04:48;;;;;;;21.13;19.60;;;;;;;;;;5030739;28;21173;-80
2023/05/17 07:07:15;;;;;;;21.10;19.33;;;;;;;;;;5029329;28;20443;-80
2023/05/17 07:09:44;;;;;;;21.13;19.43;;;;;;;;;;5028620;28;20447;-80
2023/05/17 07:12:11;;;;;;;21.87;20.20;;;;;;;;;;5045368;28;21182;-80
2023/05/17 07:14:38;;;;;;;22.07;19.47;;;;;;;;;;5043993;28;20438;-80
2023/05/17 07:17:05;;;;;;;21.27;19.73;;;;;;;;;;5044242;28;20530;-80
2023/05/17 07:19:32;;;;;;;22.20;19.93;;;;;;;;;;5044615;28;20471;-80
2023/05/17 07:21:59;;;;;;;22.07;20.07;;;;;;;;;;5045290;28;20961;-81
2023/05/17 07:24:27;;;;;;;22.67;20.37;;;;;;;;;;5044591;28;20506;-80
2023/05/17 07:26:55;;;;;;;23.23;21.43;;;;;;;;;;5043748;28;20446;-80
2023/05/17 07:29:22;;;;;;;22.40;20.50;;;;;;;;;;5043876;28;20522;-80
2023/05/17 07:31:49;;;;;;;22.30;20.87;;;;;;;;;;5036390;28;20447;-81
2023/05/17 07:34:16;;;;;;;22.07;20.47;;;;;;;;;;5035756;28;20415;-80
2023/05/17 07:36:43;;;;;;;21.37;19.97;;;;;;;;;;5038385;28;20536;-80
2023/05/17 07:39:10;;;;;;;21.80;20.20;;;;;;;;;;5033664;28;20427;-80
2023/05/17 07:41:38;;;;;;;22.93;21.03;;;;;;;;;;5039705;28;20456;-80
2023/05/17 07:44:06;;;;;;;22.03;20.27;;;;;;;;;;5045594;28;20422;-80
2023/05/17 07:46:33;;;;;;;21.57;19.97;;;;;;;;;;5043955;28;20442;-80
2023/05/17 07:49:00;;;;;;;22.07;20.50;;;;;;;;;;5043418;28;20439;-79
2023/05/17 07:51:27;;;;;;;20.00;18.80;;;;;;;;;;5047223;28;20530;-81
2023/05/17 07:53:54;;;;;;;23.00;21.27;;;;;;;;;;5051112;28;20429;-80
2023/05/17 07:56:21;;;;;;;23.93;21.67;;;;;;;;;;5049394;28;20471;-80
2023/05/17 07:58:48;;;;;;;21.37;19.80;;;;;;;;;;5056988;28;20422;-80
2023/05/17 08:01:17;;;;;;;22.40;20.60;;;;;;;;;;5057677;28;20463;-80
2023/05/17 08:03:46;;;;;;;22.93;21.17;;;;;;;;;;5052758;28;20417;-81
2023/05/17 08:06:14;;;;;;;21.57;19.90;;;;;;;;;;5047581;28;20426;-80
2023/05/17 08:08:41;;;;;;;22.00;20.23;;;;;;;;;;5048555;28;20429;-80
2023/05/17 08:11:08;;;;;;;23.83;21.87;;;;;;;;;;5045189;28;20441;-80
2023/05/17 08:13:35;;;;;;;21.20;19.90;;;;;;;;;;5046757;28;20488;-80
2023/05/17 08:16:06;;;;;;;23.80;21.50;;;;;;;;;;5045985;28;20457;-80
2023/05/17 08:18:35;;;;;;;21.70;20.07;;;;;;;;;;5046050;28;20430;-80
2023/05/17 08:21:03;;;;;;;23.10;21.00;;;;;;;;;;5046422;28;20475;-80
2023/05/17 08:23:31;;;;;;;22.07;20.63;;;;;;;;;;5047896;28;20447;-80
2023/05/17 08:25:58;;;;;;;21.43;19.93;;;;;;;;;;5045642;28;20438;-80
2023/05/17 08:28:25;;;;;;;21.40;19.93;;;;;;;;;;5047655;28;20473;-80
2023/05/17 08:30:52;;;;;;;22.07;20.20;;;;;;;;;;5046357;28;20506;-80
2023/05/17 08:33:21;;;;;;;21.20;19.77;;;;;;;;;;5047315;28;20436;-81
2023/05/17 08:35:49;;;;;;;22.00;20.57;;;;;;;;;;5046236;28;20451;-80
2023/05/17 08:38:16;;;;;;;23.33;21.30;;;;;;;;;;5046612;28;20934;-80
2023/05/17 08:40:43;;;;;;;23.23;21.50;;;;;;;;;;5045939;28;20493;-80
2023/05/17 08:43:12;;;;;;;24.10;22.17;;;;;;;;;;5046846;28;20471;-80
2023/05/17 08:45:39;;;;;;;23.40;21.57;;;;;;;;;;5046036;28;20422;-80
2023/05/17 08:48:07;;;;;;;21.50;19.80;;;;;;;;;;5047184;28;20441;-80
2023/05/17 08:50:34;;;;;;;22.73;21.03;;;;;;;;;;5011957;28;1006087;-80
2023/05/17 08:53:03;;;;;;;23.20;21.40;;;;;;;;;;5047732;28;20250;-80
2023/05/17 08:55:31;;;;;;;22.17;20.77;;;;;;;;;;5048107;28;20497;-80
2023/05/17 08:57:59;;;;;;;22.47;20.93;;;;;;;;;;5047227;28;21081;-80
2023/05/17 09:00:27;;;;;;;22.30;20.90;;;;;;;;;;5046705;28;20490;-80
2023/05/17 09:02:54;;;;;;;22.10;20.60;;;;;;;;;;5047802;28;20456;-80
2023/05/17 09:05:21;;;;;;;21.80;20.50;;;;;;;;;;5045871;28;20470;-80
2023/05/17 09:07:49;;;;;;;22.03;20.53;;;;;;;;;;5046240;28;20449;-80
2023/05/17 09:10:18;;;;;;;20.97;19.63;;;;;;;;;;5046647;28;20450;-80
2023/05/17 09:12:45;;;;;;;21.77;20.10;;;;;;;;;;5046392;28;20437;-80
2023/05/17 09:15:14;;;;;;;23.40;21.90;;;;;;;;;;5048907;28;20501;-80
2023/05/17 09:17:41;;;;;;;24.57;22.80;;;;;;;;;;5046766;28;20497;-81
2023/05/17 09:20:09;;;;;;;23.07;20.80;;;;;;;;;;5046323;28;20537;-80
2023/05/17 09:22:37;;;;;;;22.83;20.93;;;;;;;;;;5046536;28;20448;-80
2023/05/17 09:25:04;;;;;;;22.60;21.10;;;;;;;;;;5046839;28;20452;-80
2023/05/17 09:27:32;;;;;;;23.80;21.77;;;;;;;;;;5046089;28;20410;-80
2023/05/17 09:29:59;;;;;;;24.10;22.20;;;;;;;;;;5046754;28;20504;-80
2023/05/17 09:32:27;;;;;;;23.47;21.50;;;;;;;;;;5046337;28;20833;-80
2023/05/17 09:34:56;;;;;;;23.70;21.97;;;;;;;;;;5047202;28;20521;-79
2023/05/17 09:37:24;;;;;;;22.43;20.40;;;;;;;;;;5045663;28;20504;-80
2023/05/17 09:39:52;;;;;;;23.37;21.37;;;;;;;;;;5045266;28;20475;-80
2023/05/17 09:42:19;;;;;;;24.27;22.77;;;;;;;;;;5045922;28;20504;-80
2023/05/17 09:44:52;;;;;;;24.20;22.40;;;;;;;;;;5046666;28;20418;-81
2023/05/17 09:47:23;;;;;;;24.07;22.23;;;;;;;;;;5046197;28;20510;-80
2023/05/17 09:49:50;;;;;;;22.33;20.93;;;;;;;;;;5045192;28;20499;-80
2023/05/17 09:52:18;;;;;;;24.63;22.73;;;;;;;;;;5045360;28;20432;-81
2023/05/17 09:54:52;;;;;;;22.50;20.90;;;;;;;;;;5046191;28;20494;-80
2023/05/17 09:57:19;;;;;;;23.37;21.90;;;;;;;;;;5045351;28;20495;-80
2023/05/17 09:59:47;;;;;;;24.47;22.40;;;;;;;;;;5044913;28;20454;-80
2023/05/17 10:02:20;;;;;;;23.97;21.97;;;;;;;;;;5044148;28;20859;-81
2023/05/17 10:04:48;;;;;;;21.67;20.47;;;;;;;;;;5044682;28;20395;-81
2023/05/17 10:07:16;;;;;;;23.90;22.17;;;;;;;;;;5045341;28;20494;-81
2023/05/17 10:09:44;;;;;;;23.23;21.63;;;;;;;;;;5046195;28;20487;-80
2023/05/17 10:12:14;;;;;;;23.10;21.47;;;;;;;;;;5046465;28;20426;-81
2023/05/17 10:14:43;;;;;;;23.10;21.57;;;;;;;;;;5045701;28;20905;-80
2023/05/17 10:17:10;;;;;;;22.93;21.50;;;;;;;;;;5045247;28;20488;-80
2023/05/17 10:19:39;;;;;;;22.30;20.87;;;;;;;;;;5046150;28;20458;-81
2023/05/17 10:22:06;;;;;;;23.97;22.20;;;;;;;;;;5049104;28;20418;-80
2023/05/17 10:24:34;;;;;;;24.50;22.57;;;;;;;;;;5047791;28;20447;-81
2023/05/17 10:27:02;;;;;;;23.50;22.00;;;;;;;;;;5045261;28;20750;-81
2023/05/17 10:29:30;;;;;;;24.67;22.87;;;;;;;;;;5045693;28;20445;-81
2023/05/17 10:31:58;;;;;;;23.73;22.00;;;;;;;;;;5046702;28;20430;-81
2023/05/17 10:34:26;;;;;;;23.00;21.40;;;;;;;;;;5048604;28;20501;-81
2023/05/17 10:36:56;;;;;;;24.53;22.70;;;;;;;;;;5046145;28;21002;-81
2023/05/17 10:39:24;;;;;;;23.07;21.37;;;;;;;;;;5046093;28;20483;-81
2023/05/17 10:41:52;;;;;;;23.50;21.87;;;;;;;;;;5045528;28;20434;-80
2023/05/17 10:44:20;;;;;;;23.57;21.93;;;;;;;;;;5045934;28;20439;-81
2023/05/17 10:46:55;;;;;;;22.67;21.27;;;;;;;;;;5045782;28;20460;-81
2023/05/17 10:49:24;;;;;;;23.07;21.57;;;;;;;;;;5045204;28;20506;-81
2023/05/17 10:51:52;;;;;;;24.67;22.50;;;;;;;;;;5045651;28;20434;-81
2023/05/17 10:54:20;;;;;;;24.00;22.47;;;;;;;;;;5045186;28;20944;-81
2023/05/17 10:56:48;;;;;;;26.50;24.10;;;;;;;;;;5044212;28;20444;-81
2023/05/17 10:59:20;;;;;;;22.90;21.43;;;;;;;;;;5045123;28;20430;-81
2023/05/17 11:01:54;;;;;;;24.27;22.40;;;;;;;;;;5045161;28;20433;-80
2023/05/17 11:04:23;;;;;;;23.80;21.97;;;;;;;;;;5045783;28;20421;-81
2023/05/17 11:06:52;;;;;;;23.13;21.53;;;;;;;;;;5043467;28;20493;-81
2023/05/17 11:09:22;;;;;;;23.50;21.90;;;;;;;;;;5043820;28;20456;-81
2023/05/17 11:12:06;;;;;;;23.60;21.57;;;;;;;;;;5044153;28;20914;-81
2023/05/17 11:14:44;;;;;;;22.33;20.77;;;;;;;;;;5043184;28;20438;-79
2023/05/17 11:17:15;;;;;;;22.97;21.43;;;;;;;;;;5042698;28;20528;-85
2023/05/17 11:19:49;;;;;;;22.83;21.43;;;;;;;;;;5041971;28;20483;-80
2023/05/17 11:22:17;;;;;;;22.73;21.03;;;;;;;;;;5043610;28;20781;-80
2023/05/17 11:24:45;;;;;;;22.17;20.87;;;;;;;;;;5043896;28;20458;-80
2023/05/17 11:27:14;;;;;;;23.87;21.80;;;;;;;;;;5042731;28;20928;-80
2023/05/17 11:29:42;;;;;;;22.53;20.97;;;;;;;;;;5041746;28;20468;-80
2023/05/17 11:32:10;;;;;;;22.97;21.47;;;;;;;;;;5043534;28;20542;-80
2023/05/17 11:34:38;;;;;;;23.70;21.90;;;;;;;;;;5044953;28;20406;-81
2023/05/17 11:37:10;;;;;;;23.33;21.57;;;;;;;;;;5043284;28;21039;-80
2023/05/17 11:39:38;;;;;;;24.07;22.20;;;;;;;;;;5044559;28;20450;-80
2023/05/17 11:42:06;;;;;;;25.63;23.83;;;;;;;;;;5041927;28;20438;-79
2023/05/17 11:44:35;;;;;;;23.13;21.40;;;;;;;;;;5044724;28;20443;-80
2023/05/17 11:47:03;;;;;;;23.30;21.30;;;;;;;;;;5045627;28;20440;-81
2023/05/17 11:49:31;;;;;;;24.20;22.60;;;;;;;;;;5046242;28;20473;-82
2023/05/17 11:51:58;;;;;;;25.20;23.40;;;;;;;;;;5046143;28;20472;-82
2023/05/17 11:54:26;;;;;;;24.17;22.47;;;;;;;;;;5046652;28;20474;-81
2023/05/17 11:56:53;;;;;;;25.90;23.13;;;;;;;;;;5046772;28;20422;-81
2023/05/17 11:59:22;;;;;;;25.10;23.40;;;;;;;;;;5045198;28;20442;-81
2023/05/17 12:01:49;;;;;;;25.00;22.63;;;;;;;;;;5044177;28;20488;-82
2023/05/17 12:04:24;;;;;;;23.70;21.80;;;;;;;;;;5045449;28;20434;-81
2023/05/17 12:06:51;;;;;;;23.30;21.50;;;;;;;;;;5045442;28;20467;-81
2023/05/17 12:09:18;;;;;;;23.30;21.33;;;;;;;;;;5043717;28;20826;-81
2023/05/17 12:11:46;;;;;;;23.33;21.60;;;;;;;;;;5043131;28;20464;-82
2023/05/17 12:14:16;;;;;;;22.50;20.80;;;;;;;;;;5042586;28;20463;-81
2023/05/17 12:16:45;;;;;;;25.87;23.83;;;;;;;;;;5043398;28;20484;-81
2023/05/17 12:19:18;;;;;;;23.27;21.57;;;;;;;;;;5050958;28;20438;-86
2023/05/17 12:21:45;;;;;;;23.73;22.03;;;;;;;;;;5056482;28;20433;-80
2023/05/17 12:24:12;;;;;;;22.27;20.60;;;;;;;;;;5055598;28;20447;-81
2023/05/17 12:26:43;;;;;;;23.50;22.00;;;;;;;;;;5044398;28;20445;-81
2023/05/17 12:29:10;;;;;;;24.43;22.80;;;;;;;;;;5043684;28;20458;-81
2023/05/17 12:31:39;;;;;;;23.23;21.43;;;;;;;;;;5043679;28;20493;-81
2023/05/17 12:34:09;;;;;;;22.73;20.93;;;;;;;;;;5043463;28;20418;-82
2023/05/17 12:36:36;;;;;;;24.30;22.20;;;;;;;;;;5045468;28;20875;-82
2023/05/17 12:39:07;;;;;;;23.97;21.97;;;;;;;;;;5047043;28;20618;-82
2023/05/17 12:41:34;;;;;;;24.30;22.27;;;;;;;;;;5047279;28;20458;-82
2023/05/17 12:44:01;;;;;;;24.60;22.80;;;;;;;;;;5047827;28;20427;-82
2023/05/17 12:46:28;;;;;;;25.57;23.33;;;;;;;;;;5046524;28;21237;-82
2023/05/17 12:48:55;;;;;;;22.53;21.03;;;;;;;;;;5047402;28;20472;-81
2023/05/17 12:51:24;;;;;;;24.10;22.30;;;;;;;;;;5047419;28;20418;-81
2023/05/17 12:53:51;;;;;;;23.53;21.93;;;;;;;;;;5047578;28;20451;-81
2023/05/17 12:56:21;;;;;;;23.87;21.67;;;;;;;;;;5048448;28;20506;-81
2023/05/17 12:59:03;;;;;;;22.90;21.40;;;;;;;;;;5047503;28;20591;-82
2023/05/17 13:01:33;;;;;;;23.20;21.33;;;;;;;;;;5045712;28;20402;-81
2023/05/17 13:04:00;;;;;;;23.67;21.70;;;;;;;;;;5043544;28;20407;-81
2023/05/17 13:06:28;;;;;;;24.20;22.17;;;;;;;;;;5043680;28;20454;-82
2023/05/17 13:09:01;;;;;;;25.00;22.70;;;;;;;;;;5044333;28;20474;-81
2023/05/17 13:11:29;;;;;;;23.97;22.07;;;;;;;;;;5046063;28;20418;-81
2023/05/17 13:13:56;;;;;;;24.87;22.80;;;;;;;;;;5045289;28;20813;-81
2023/05/17 13:16:30;;;;;;;23.93;22.43;;;;;;;;;;5044060;28;20455;-81
2023/05/17 13:18:57;;;;;;;23.40;21.80;;;;;;;;;;5044117;28;20558;-81
2023/05/17 13:21:25;;;;;;;24.73;22.43;;;;;;;;;;5044855;28;20431;-81
2023/05/17 13:23:53;;;;;;;23.27;21.53;;;;;;;;;;5044215;28;20446;-81
2023/05/17 13:26:20;;;;;;;24.67;22.10;;;;;;;;;;5044054;28;20426;-81
2023/05/17 13:28:49;;;;;;;24.03;22.50;;;;;;;;;;5045433;28;20432;-81
2023/05/17 13:31:16;;;;;;;25.17;23.10;;;;;;;;;;5046837;28;20446;-81
2023/05/17 13:33:43;;;;;;;23.10;21.20;;;;;;;;;;5045207;28;20522;-81
2023/05/17 13:36:11;;;;;;;24.13;22.23;;;;;;;;;;5044530;28;20438;-81
2023/05/17 13:38:37;;;;;;;23.37;21.80;;;;;;;;;;5044368;28;20461;-81
2023/05/17 13:41:08;;;;;;;23.03;21.70;;;;;;;;;;5043802;28;20472;-81
2023/05/17 13:43:35;;;;;;;24.00;22.50;;;;;;;;;;5043675;28;20508;-81
2023/05/17 13:46:02;;;;;;;24.77;23.20;;;;;;;;;;5043038;28;20411;-81
2023/05/17 13:48:29;;;;;;;23.30;21.80;;;;;;;;;;5042752;28;20431;-81
2023/05/17 13:50:57;;;;;;;24.03;22.43;;;;;;;;;;5043686;28;20499;-80
2023/05/17 13:53:24;;;;;;;25.50;23.33;;;;;;;;;;5042570;28;20453;-81
2023/05/17 13:55:51;;;;;;;24.60;22.77;;;;;;;;;;5042637;28;20422;-81
2023/05/17 13:58:19;;;;;;;24.83;23.07;;;;;;;;;;5043388;28;20485;-81
2023/05/17 14:00:46;;;;;;;24.37;22.90;;;;;;;;;;5041464;28;20481;-81
2023/05/17 14:03:13;;;;;;;24.30;22.70;;;;;;;;;;5041920;28;20430;-85
2023/05/17 14:05:40;;;;;;;24.83;22.60;;;;;;;;;;5042836;28;21026;-82
2023/05/17 14:08:08;;;;;;;23.27;21.73;;;;;;;;;;5044619;28;20814;-81
2023/05/17 14:10:35;;;;;;;23.73;21.97;;;;;;;;;;5044261;28;21013;-81
2023/05/17 14:13:02;;;;;;;23.43;21.80;;;;;;;;;;5043908;28;20429;-81
2023/05/17 14:15:36;;;;;;;25.37;23.17;;;;;;;;;;5044168;28;20479;-81
2023/05/17 14:18:03;;;;;;;24.20;22.60;;;;;;;;;;5044635;28;20439;-81
2023/05/17 14:20:31;;;;;;;24.20;22.30;;;;;;;;;;5045041;28;20450;-81